MMCDW EGKB-EGGP
Flight info
| Callsign | MMCDW |
|---|---|
| Flight time | 0h 47m |
| Altitude | 22000 |
| Route | DET DCT LAM N57 WELIN T420 TNT DCT NANTI DCT KEGUN |
| Aircraft | PC12/L-SDFGRWY/S |
Departure
| Time | 2026-05-07 20:07 |
|---|---|
| Airport | London Biggin Hill Airport (EGKB) |
Arrival
| Time | 2026-05-07 20:54 |
|---|---|
| Airport | Liverpool John Lennon Airport (EGGP) |
| Time | Latitude | Longitude | Altitude | Speed | Heading |
|---|---|---|---|---|---|
| 2026-05-07 19:51 | 51.32086 | 0.03516 | 557 ft | 0 kts | 92° |
| 2026-05-07 20:02 | 51.32096 | 0.03535 | 563 ft | 9 kts | 354° |
| 2026-05-07 20:02 | 51.32187 | 0.03410 | 546 ft | 16 kts | 315° |
| 2026-05-07 20:02 | 51.32211 | 0.03352 | 548 ft | 1 kts | 285° |
| 2026-05-07 20:03 | 51.32234 | 0.03276 | 564 ft | 14 kts | 345° |
| 2026-05-07 20:03 | 51.32290 | 0.03140 | 551 ft | 24 kts | 284° |
| 2026-05-07 20:03 | 51.32326 | 0.02931 | 545 ft | 16 kts | 283° |
| 2026-05-07 20:03 | 51.32344 | 0.02827 | 542 ft | 0 kts | 284° |
| 2026-05-07 20:05 | 51.32351 | 0.02783 | 540 ft | 14 kts | 283° |
| 2026-05-07 20:06 | 51.32412 | 0.02717 | 539 ft | 2 kts | 24° |
| 2026-05-07 20:06 | 51.32413 | 0.02717 | 539 ft | 0 kts | 25° |
| 2026-05-07 20:06 | 51.32435 | 0.02734 | 538 ft | 23 kts | 26° |
| 2026-05-07 20:07 | 51.32823 | 0.03031 | 526 ft | 96 kts | 27° |
| 2026-05-07 20:07 | 51.33532 | 0.03576 | 863 ft | 119 kts | 29° |
| 2026-05-07 20:07 | 51.34333 | 0.04120 | 1463 ft | 130 kts | 25° |
| 2026-05-07 20:07 | 51.35033 | 0.05000 | 2051 ft | 135 kts | 70° |
| 2026-05-07 20:08 | 51.35048 | 0.06557 | 2580 ft | 154 kts | 101° |
| 2026-05-07 20:08 | 51.34877 | 0.08347 | 3118 ft | 169 kts | 99° |
| 2026-05-07 20:08 | 51.34710 | 0.10271 | 3646 ft | 179 kts | 98° |
| 2026-05-07 20:08 | 51.34540 | 0.12261 | 4172 ft | 185 kts | 98° |
| 2026-05-07 20:09 | 51.34363 | 0.14328 | 4710 ft | 189 kts | 98° |
| 2026-05-07 20:09 | 51.34182 | 0.16444 | 5229 ft | 193 kts | 97° |
| 2026-05-07 20:09 | 51.33999 | 0.18589 | 5748 ft | 195 kts | 98° |
| 2026-05-07 20:10 | 51.33628 | 0.22909 | 6772 ft | 200 kts | 98° |
| 2026-05-07 20:10 | 51.33437 | 0.25130 | 7268 ft | 202 kts | 98° |
| 2026-05-07 20:10 | 51.33242 | 0.27386 | 7773 ft | 206 kts | 98° |
| 2026-05-07 20:10 | 51.33047 | 0.29644 | 8277 ft | 208 kts | 98° |
| 2026-05-07 20:11 | 51.32845 | 0.31963 | 8797 ft | 211 kts | 98° |
| 2026-05-07 20:11 | 51.32638 | 0.34353 | 8894 ft | 225 kts | 99° |
| 2026-05-07 20:11 | 51.32465 | 0.36934 | 8882 ft | 239 kts | 88° |
| 2026-05-07 20:11 | 51.33081 | 0.39367 | 9070 ft | 245 kts | 48° |
| 2026-05-07 20:12 | 51.34534 | 0.40690 | 9069 ft | 244 kts | 9° |
| 2026-05-07 20:12 | 51.36206 | 0.40465 | 9075 ft | 241 kts | 345° |
| 2026-05-07 20:12 | 51.37830 | 0.39733 | 9077 ft | 242 kts | 341° |
| 2026-05-07 20:12 | 51.39422 | 0.38962 | 9080 ft | 242 kts | 341° |
| 2026-05-07 20:13 | 51.41029 | 0.38170 | 9080 ft | 242 kts | 341° |
| 2026-05-07 20:13 | 51.42627 | 0.37374 | 9347 ft | 233 kts | 341° |
| 2026-05-07 20:13 | 51.44127 | 0.36634 | 9929 ft | 221 kts | 341° |
| 2026-05-07 20:13 | 51.45574 | 0.35929 | 10451 ft | 220 kts | 341° |
| 2026-05-07 20:14 | 51.47053 | 0.35214 | 10987 ft | 224 kts | 341° |
| 2026-05-07 20:14 | 51.48556 | 0.34488 | 11534 ft | 227 kts | 341° |
| 2026-05-07 20:14 | 51.50078 | 0.33752 | 12094 ft | 229 kts | 341° |
| 2026-05-07 20:14 | 51.51623 | 0.33003 | 12667 ft | 232 kts | 341° |
| 2026-05-07 20:15 | 51.53163 | 0.32225 | 13244 ft | 233 kts | 335° |
| 2026-05-07 20:15 | 51.54372 | 0.30566 | 13820 ft | 229 kts | 305° |
| 2026-05-07 20:15 | 51.55323 | 0.28549 | 14350 ft | 230 kts | 304° |
| 2026-05-07 20:15 | 51.56327 | 0.26515 | 14889 ft | 232 kts | 306° |
| 2026-05-07 20:16 | 51.57357 | 0.24491 | 15437 ft | 234 kts | 306° |
| 2026-05-07 20:16 | 51.58392 | 0.22449 | 16000 ft | 236 kts | 306° |
| 2026-05-07 20:16 | 51.59414 | 0.20420 | 16553 ft | 237 kts | 306° |
| 2026-05-07 20:16 | 51.60448 | 0.18363 | 17132 ft | 237 kts | 306° |
| 2026-05-07 20:17 | 51.61489 | 0.16294 | 17713 ft | 238 kts | 306° |
| 2026-05-07 20:17 | 51.62536 | 0.14208 | 18195 ft | 242 kts | 306° |
| 2026-05-07 20:17 | 51.63605 | 0.12077 | 18599 ft | 246 kts | 306° |
| 2026-05-07 20:17 | 51.64689 | 0.09919 | 18983 ft | 249 kts | 306° |
| 2026-05-07 20:18 | 51.65784 | 0.07734 | 19372 ft | 252 kts | 306° |
| 2026-05-07 20:18 | 51.66889 | 0.05528 | 19762 ft | 254 kts | 306° |
| 2026-05-07 20:18 | 51.68003 | 0.03302 | 20168 ft | 255 kts | 305° |
| 2026-05-07 20:18 | 51.69108 | 0.01093 | 20568 ft | 256 kts | 305° |
| 2026-05-07 20:19 | 51.70224 | -0.01143 | 20962 ft | 256 kts | 305° |
| 2026-05-07 20:19 | 51.71338 | -0.03373 | 21373 ft | 255 kts | 305° |
| 2026-05-07 20:19 | 51.72457 | -0.05617 | 21792 ft | 255 kts | 305° |
| 2026-05-07 20:19 | 51.73576 | -0.07865 | 22054 ft | 261 kts | 305° |
| 2026-05-07 20:20 | 51.74724 | -0.10172 | 22055 ft | 271 kts | 306° |
| 2026-05-07 20:20 | 51.76096 | -0.12340 | 22060 ft | 279 kts | 315° |
| 2026-05-07 20:20 | 51.77502 | -0.14380 | 22059 ft | 283 kts | 314° |
| 2026-05-07 20:20 | 51.78997 | -0.16606 | 22060 ft | 284 kts | 314° |
| 2026-05-07 20:21 | 51.80457 | -0.18779 | 22058 ft | 285 kts | 314° |
| 2026-05-07 20:21 | 51.81904 | -0.20918 | 22082 ft | 285 kts | 314° |
| 2026-05-07 20:21 | 51.83366 | -0.23081 | 22083 ft | 283 kts | 314° |
| 2026-05-07 20:21 | 51.84821 | -0.25241 | 22084 ft | 284 kts | 314° |
| 2026-05-07 20:22 | 51.86281 | -0.27410 | 22085 ft | 285 kts | 314° |
| 2026-05-07 20:22 | 51.87745 | -0.29584 | 22086 ft | 285 kts | 314° |
| 2026-05-07 20:22 | 51.89210 | -0.31764 | 22087 ft | 285 kts | 314° |
| 2026-05-07 20:22 | 51.90654 | -0.33915 | 22085 ft | 286 kts | 314° |
| 2026-05-07 20:23 | 51.92125 | -0.36107 | 22087 ft | 286 kts | 314° |
| 2026-05-07 20:23 | 51.93594 | -0.38299 | 22084 ft | 286 kts | 314° |
| 2026-05-07 20:23 | 51.95038 | -0.40453 | 22084 ft | 286 kts | 314° |
| 2026-05-07 20:23 | 51.96503 | -0.42644 | 22084 ft | 286 kts | 314° |
| 2026-05-07 20:24 | 51.97973 | -0.44842 | 22085 ft | 286 kts | 314° |
| 2026-05-07 20:24 | 51.99433 | -0.47028 | 22083 ft | 286 kts | 314° |
| 2026-05-07 20:24 | 52.00879 | -0.49196 | 22082 ft | 286 kts | 314° |
| 2026-05-07 20:24 | 52.02339 | -0.51386 | 22081 ft | 286 kts | 314° |
| 2026-05-07 20:25 | 52.03801 | -0.53582 | 22067 ft | 286 kts | 314° |
| 2026-05-07 20:25 | 52.05263 | -0.55778 | 22066 ft | 286 kts | 314° |
| 2026-05-07 20:25 | 52.06704 | -0.57946 | 22067 ft | 285 kts | 314° |
| 2026-05-07 20:25 | 52.08160 | -0.60138 | 22056 ft | 285 kts | 314° |
| 2026-05-07 20:26 | 52.09618 | -0.62335 | 22059 ft | 285 kts | 314° |
| 2026-05-07 20:26 | 52.11080 | -0.64541 | 22058 ft | 285 kts | 314° |
| 2026-05-07 20:26 | 52.12518 | -0.66713 | 22058 ft | 285 kts | 314° |
| 2026-05-07 20:26 | 52.13972 | -0.68910 | 22059 ft | 285 kts | 314° |
| 2026-05-07 20:27 | 52.15429 | -0.71114 | 22060 ft | 285 kts | 314° |
| 2026-05-07 20:27 | 52.16885 | -0.73318 | 22060 ft | 285 kts | 314° |
| 2026-05-07 20:27 | 52.18324 | -0.75499 | 22060 ft | 285 kts | 314° |
| 2026-05-07 20:27 | 52.19778 | -0.77705 | 22060 ft | 285 kts | 314° |
| 2026-05-07 20:28 | 52.21233 | -0.79914 | 22053 ft | 285 kts | 314° |
| 2026-05-07 20:28 | 52.22683 | -0.82118 | 22053 ft | 285 kts | 314° |
| 2026-05-07 20:28 | 52.24118 | -0.84299 | 22053 ft | 285 kts | 314° |
| 2026-05-07 20:28 | 52.25718 | -0.86235 | 22047 ft | 288 kts | 326° |
| 2026-05-07 20:29 | 52.27445 | -0.87919 | 22049 ft | 288 kts | 325° |
| 2026-05-07 20:29 | 52.29159 | -0.89622 | 22054 ft | 288 kts | 325° |
| 2026-05-07 20:29 | 52.30854 | -0.91316 | 22055 ft | 288 kts | 325° |
| 2026-05-07 20:29 | 52.32580 | -0.93036 | 22055 ft | 288 kts | 325° |
| 2026-05-07 20:30 | 52.34273 | -0.94719 | 22065 ft | 288 kts | 325° |
| 2026-05-07 20:30 | 52.35989 | -0.96430 | 22065 ft | 288 kts | 325° |
| 2026-05-07 20:30 | 52.37700 | -0.98138 | 22063 ft | 288 kts | 325° |
| 2026-05-07 20:30 | 52.39411 | -0.99848 | 22057 ft | 288 kts | 325° |
| 2026-05-07 20:31 | 52.41126 | -1.01562 | 22055 ft | 288 kts | 325° |
| 2026-05-07 20:31 | 52.42840 | -1.03279 | 22038 ft | 288 kts | 325° |
| 2026-05-07 20:31 | 52.44533 | -1.04975 | 22034 ft | 288 kts | 325° |
| 2026-05-07 20:31 | 52.46242 | -1.06688 | 22031 ft | 288 kts | 325° |
| 2026-05-07 20:32 | 52.47953 | -1.08405 | 22031 ft | 288 kts | 325° |
| 2026-05-07 20:32 | 52.49673 | -1.10133 | 22027 ft | 288 kts | 325° |
| 2026-05-07 20:32 | 52.51388 | -1.11857 | 22024 ft | 288 kts | 325° |
| 2026-05-07 20:32 | 52.53085 | -1.13565 | 22019 ft | 288 kts | 325° |
| 2026-05-07 20:33 | 52.54798 | -1.15291 | 22017 ft | 288 kts | 325° |
| 2026-05-07 20:33 | 52.56512 | -1.17018 | 22014 ft | 288 kts | 325° |
| 2026-05-07 20:33 | 52.58226 | -1.18748 | 22011 ft | 288 kts | 325° |
| 2026-05-07 20:33 | 52.59917 | -1.20454 | 22008 ft | 288 kts | 325° |
| 2026-05-07 20:34 | 52.61634 | -1.22189 | 21820 ft | 290 kts | 325° |
| 2026-05-07 20:34 | 52.63354 | -1.23927 | 21451 ft | 287 kts | 325° |
| 2026-05-07 20:34 | 52.65031 | -1.25623 | 21076 ft | 285 kts | 325° |
| 2026-05-07 20:34 | 52.66722 | -1.27338 | 20715 ft | 285 kts | 325° |
| 2026-05-07 20:35 | 52.68419 | -1.29059 | 20328 ft | 285 kts | 325° |
| 2026-05-07 20:35 | 52.70111 | -1.30777 | 19936 ft | 287 kts | 325° |
| 2026-05-07 20:35 | 52.71794 | -1.32486 | 19754 ft | 285 kts | 325° |
| 2026-05-07 20:35 | 52.73500 | -1.34227 | 19612 ft | 289 kts | 325° |
| 2026-05-07 20:36 | 52.75216 | -1.35975 | 19410 ft | 291 kts | 326° |
| 2026-05-07 20:36 | 52.76918 | -1.37710 | 19209 ft | 292 kts | 325° |
| 2026-05-07 20:36 | 52.78650 | -1.39478 | 18996 ft | 292 kts | 325° |
| 2026-05-07 20:36 | 52.80380 | -1.41245 | 18785 ft | 292 kts | 325° |
| 2026-05-07 20:37 | 52.82113 | -1.43018 | 18574 ft | 293 kts | 326° |
| 2026-05-07 20:37 | 52.83834 | -1.44779 | 18363 ft | 293 kts | 326° |
| 2026-05-07 20:37 | 52.85567 | -1.46555 | 18131 ft | 292 kts | 326° |
| 2026-05-07 20:37 | 52.87293 | -1.48325 | 17910 ft | 291 kts | 326° |
| 2026-05-07 20:38 | 52.89015 | -1.50094 | 17697 ft | 290 kts | 325° |
| 2026-05-07 20:38 | 52.90734 | -1.51860 | 17497 ft | 290 kts | 325° |
| 2026-05-07 20:38 | 52.92421 | -1.53595 | 17284 ft | 289 kts | 325° |
| 2026-05-07 20:38 | 52.94132 | -1.55357 | 17073 ft | 288 kts | 325° |
| 2026-05-07 20:39 | 52.95833 | -1.57111 | 16860 ft | 288 kts | 325° |
| 2026-05-07 20:39 | 52.97533 | -1.58864 | 16652 ft | 287 kts | 325° |
| 2026-05-07 20:39 | 52.99234 | -1.60619 | 16451 ft | 287 kts | 325° |
| 2026-05-07 20:39 | 53.00912 | -1.62353 | 16249 ft | 287 kts | 325° |
| 2026-05-07 20:40 | 53.02610 | -1.64110 | 16035 ft | 287 kts | 325° |
| 2026-05-07 20:40 | 53.04264 | -1.65952 | 15813 ft | 282 kts | 315° |
| 2026-05-07 20:40 | 53.05365 | -1.68534 | 15609 ft | 274 kts | 292° |
| 2026-05-07 20:40 | 53.05864 | -1.71546 | 15416 ft | 269 kts | 276° |
| 2026-05-07 20:41 | 53.06139 | -1.74621 | 15227 ft | 268 kts | 275° |
| 2026-05-07 20:41 | 53.06422 | -1.77685 | 15035 ft | 268 kts | 276° |
| 2026-05-07 20:41 | 53.06718 | -1.80739 | 14843 ft | 267 kts | 276° |
| 2026-05-07 20:41 | 53.07013 | -1.83794 | 14645 ft | 267 kts | 276° |
| 2026-05-07 20:42 | 53.07299 | -1.86795 | 14458 ft | 266 kts | 276° |
| 2026-05-07 20:42 | 53.07588 | -1.89838 | 14266 ft | 265 kts | 276° |
| 2026-05-07 20:42 | 53.07875 | -1.92870 | 14074 ft | 264 kts | 276° |
| 2026-05-07 20:42 | 53.08157 | -1.95850 | 13888 ft | 263 kts | 276° |
| 2026-05-07 20:43 | 53.08441 | -1.98860 | 13682 ft | 263 kts | 276° |
| 2026-05-07 20:43 | 53.08723 | -2.01862 | 13483 ft | 261 kts | 276° |
| 2026-05-07 20:43 | 53.09000 | -2.04820 | 13295 ft | 259 kts | 276° |
| 2026-05-07 20:43 | 53.09277 | -2.07778 | 13103 ft | 258 kts | 276° |
| 2026-05-07 20:44 | 53.09549 | -2.10694 | 12917 ft | 257 kts | 276° |
| 2026-05-07 20:44 | 53.09822 | -2.13633 | 12731 ft | 256 kts | 276° |
| 2026-05-07 20:44 | 53.10094 | -2.16561 | 12548 ft | 255 kts | 276° |
| 2026-05-07 20:44 | 53.10360 | -2.19444 | 12364 ft | 254 kts | 276° |
| 2026-05-07 20:45 | 53.10628 | -2.22346 | 12185 ft | 253 kts | 276° |
| 2026-05-07 20:45 | 53.10895 | -2.25255 | 11999 ft | 253 kts | 276° |
| 2026-05-07 20:45 | 53.11160 | -2.28142 | 11818 ft | 252 kts | 276° |
| 2026-05-07 20:45 | 53.11423 | -2.31020 | 11637 ft | 251 kts | 276° |
| 2026-05-07 20:46 | 53.11686 | -2.33898 | 11458 ft | 251 kts | 276° |
| 2026-05-07 20:46 | 53.11946 | -2.36763 | 11273 ft | 250 kts | 276° |
| 2026-05-07 20:46 | 53.12203 | -2.39593 | 11102 ft | 249 kts | 276° |
| 2026-05-07 20:46 | 53.12462 | -2.42454 | 10915 ft | 249 kts | 276° |
| 2026-05-07 20:47 | 53.12719 | -2.45300 | 10735 ft | 247 kts | 276° |
| 2026-05-07 20:47 | 53.12973 | -2.48129 | 10557 ft | 247 kts | 276° |
| 2026-05-07 20:47 | 53.13227 | -2.50966 | 10383 ft | 247 kts | 276° |
| 2026-05-07 20:47 | 53.13477 | -2.53753 | 10203 ft | 245 kts | 275° |
| 2026-05-07 20:48 | 53.13728 | -2.56566 | 10047 ft | 245 kts | 274° |
| 2026-05-07 20:48 | 53.13988 | -2.59353 | 10022 ft | 243 kts | 274° |
| 2026-05-07 20:48 | 53.14267 | -2.62184 | 9787 ft | 247 kts | 275° |
| 2026-05-07 20:48 | 53.14539 | -2.64951 | 9538 ft | 243 kts | 274° |
| 2026-05-07 20:49 | 53.15156 | -2.67576 | 9265 ft | 251 kts | 304° |
| 2026-05-07 20:49 | 53.16617 | -2.69226 | 8914 ft | 258 kts | 334° |
| 2026-05-07 20:49 | 53.18267 | -2.70140 | 8424 ft | 243 kts | 340° |
| 2026-05-07 20:49 | 53.19865 | -2.70905 | 7904 ft | 236 kts | 341° |
| 2026-05-07 20:50 | 53.21430 | -2.71635 | 7384 ft | 231 kts | 341° |
| 2026-05-07 20:50 | 53.22946 | -2.72334 | 7010 ft | 225 kts | 341° |
| 2026-05-07 20:50 | 53.24485 | -2.73037 | 6425 ft | 228 kts | 341° |
| 2026-05-07 20:50 | 53.25469 | -2.73478 | 5923 ft | 216 kts | 341° |
| 2026-05-07 20:51 | 53.26908 | -2.74121 | 5168 ft | 207 kts | 341° |
| 2026-05-07 20:51 | 53.28598 | -2.74872 | 4216 ft | 172 kts | 341° |
| 2026-05-07 20:51 | 53.29695 | -2.75355 | 3502 ft | 154 kts | 341° |
| 2026-05-07 20:51 | 53.30345 | -2.75642 | 3029 ft | 139 kts | 341° |
| 2026-05-07 20:52 | 53.31233 | -2.76039 | 2331 ft | 126 kts | 341° |
| 2026-05-07 20:52 | 53.32064 | -2.76427 | 1905 ft | 122 kts | 341° |
| 2026-05-07 20:52 | 53.32845 | -2.76800 | 1550 ft | 113 kts | 340° |
| 2026-05-07 20:52 | 53.33516 | -2.77367 | 1210 ft | 103 kts | 307° |
| 2026-05-07 20:53 | 53.33629 | -2.78394 | 977 ft | 84 kts | 255° |
| 2026-05-07 20:53 | 53.33624 | -2.79361 | 798 ft | 85 kts | 268° |
| 2026-05-07 20:53 | 53.33598 | -2.80351 | 645 ft | 87 kts | 259° |
| 2026-05-07 20:53 | 53.33536 | -2.81380 | 465 ft | 89 kts | 261° |
| 2026-05-07 20:54 | 53.33471 | -2.82388 | 266 ft | 88 kts | 263° |
| 2026-05-07 20:54 | 53.33434 | -2.83372 | 117 ft | 82 kts | 263° |
| 2026-05-07 20:54 | 53.33396 | -2.84202 | 73 ft | 38 kts | 266° |
| 2026-05-07 20:54 | 53.33388 | -2.84391 | 75 ft | 21 kts | 264° |
| 2026-05-07 20:55 | 53.33409 | -2.84535 | 71 ft | 11 kts | 25° |
| 2026-05-07 20:55 | 53.33466 | -2.84396 | 74 ft | 20 kts | 58° |
| 2026-05-07 20:55 | 53.33534 | -2.84213 | 75 ft | 18 kts | 58° |
| 2026-05-07 20:55 | 53.33574 | -2.84006 | 71 ft | 20 kts | 85° |
| 2026-05-07 20:56 | 53.33628 | -2.83926 | 69 ft | 14 kts | 354° |
| 2026-05-07 20:56 | 53.33698 | -2.83936 | 67 ft | 8 kts | 354° |
| 2026-05-07 20:56 | 53.33720 | -2.83917 | 68 ft | 2 kts | 88° |
| 2026-05-07 20:56 | 53.33721 | -2.83902 | 74 ft | 0 kts | 86° |